• Join FlightAware (Why Join?)
  • Login
  • US Flag 
05:10AM EDT


 

Airport Tracker/Info


-or-


 

Live Flight TrackerFlight Track Log ✈ AWE2740 ✈ 19-Jun-2014 ✈ KIAD - KCLT

Flight Track Log - Related Links

Times and Time Zones

All times are in EDT time to prevent confusion due to time zone crossing. See the AWE2740 flight status page for this flight to view local times or setup timezone preferences in your user account.

Time Position Orientation Groundspeed Altitude Reporting Facility
EDT Latitude Longitude Course Direction KTS MPH feet Rate Location/Type
11:32PM 38.9333 -77.5000 157° South 173 199 1,700  Level Potomac TRACON
11:33PM 38.9000 -77.5833 243° Southwest 250 288 3,700 1,620 Climbing Potomac TRACON
11:34PM 38.8667 -77.6500 237° Southwest 279 321 5,000 2,100 Climbing Potomac TRACON
11:35PM 38.7532 -77.6528 189° South  Level Estimated
11:35PM 38.8167 -77.7333 232° Southwest 289 333 7,700  Level Potomac TRACON
11:36PM 38.6779 -77.6118 157° South  Level FlightAware Approximate
11:36PM 38.7500 -77.7333 180° South 304 350 10,800  Level Potomac TRACON
11:37PM 38.6139 -77.6771 185° South  Level Estimated
11:37PM 38.6667 -77.7167 171° South 318 366 13,600  Level Potomac TRACON
11:38PM 38.5388 -77.6356 157° South  Level FlightAware Approximate
11:38PM 38.6253 -77.7442 207° Southwest 325 374 14,400  Level Washington Center
11:39PM 38.5514 -77.7950 208° Southwest 336 387 16,500 2,220 Climbing Washington Center
11:40PM 38.4647 -77.8536 208° Southwest 348 400 18,800 2,220 Climbing Washington Center
11:41PM 38.3761 -77.9117 207° Southwest 358 412 21,000 2,100 Climbing Washington Center
11:42PM 38.2853 -77.9725 208° Southwest 363 418 23,100 1,500 Climbing Washington Center
11:43PM 38.1922 -78.0356 208° Southwest 368 423 24,000 420 Climbing Washington Center
11:44PM 38.0969 -78.0983 207° Southwest 380 437 24,000  Level Washington Center
11:45PM 37.9908 -78.1844 213° Southwest 390 449 24,000  Level Washington Center
11:46PM 37.9197 -78.2953 231° Southwest 418 481 24,000  Level Washington Center
11:47PM 37.8356 -78.4158 229° Southwest 446 513 24,000  Level Washington Center
11:48PM 37.7469 -78.5436 229° Southwest 467 537 24,000  Level Washington Center
11:49PM 37.6583 -78.6689 228° Southwest 481 554 24,000  Level Washington Center
11:50PM 37.5717 -78.7911 228° Southwest 481 554 24,000  Level Washington Center
11:51PM 37.4850 -78.9131 228° Southwest 481 554 24,000  Level Washington Center
11:52PM 37.3981 -79.0347 228° Southwest 481 554 24,000  Level Washington Center
11:53PM 37.3089 -79.1586 228° Southwest 481 554 24,000  Level Washington Center
11:54PM 37.2028 -79.2842 223° Southwest 476 548 24,000  Level Washington Center
11:55PM 37.0894 -79.3725 212° Southwest 471 542 24,000  Level Washington Center
11:56PM 36.9781 -79.4658 214° Southwest 481 554 24,000  Level Washington Center
11:57PM 36.8664 -79.5589 214° Southwest 486 559 24,000  Level Washington Center
12:00AM 36.5528 -79.8108 213° Southwest 482 555 24,000  Level Atlanta Center
12:01AM 36.4392 -79.9019 213° Southwest 487 560 24,000  Level Atlanta Center
12:02AM 36.3314 -79.9900 213° Southwest 487 560 24,000 -480 Level Atlanta Center
12:03AM 36.2361 -80.0694 214° Southwest 452 520 23,100 -1,500 Descending Atlanta Center
12:04AM 36.1428 -80.1511 215° Southwest 428 493 21,100 -2,040 Descending Atlanta Center
12:05AM 36.0533 -80.2247 214° Southwest 407 468 19,100 -2,220 Descending Atlanta Center
12:05AM 36.0086 -80.2681 218° Southwest 378 435 18,000 -1,980 Descending Atlanta Center
12:05AM 35.9700 -80.3031 216° Southwest 368 423 17,300 -1,620 Descending Atlanta Center
12:06AM 35.9050 -80.3600 215° Southwest 345 397 15,900 -1,800 Descending Atlanta Center
12:07AM 35.8847 -80.3736 209° Southwest 370 426 15,400 -1,500 Descending Atlanta Center
12:07AM 35.8319 -80.4222 217° Southwest 318 366 14,400 -1,320 Descending Atlanta Center
12:08AM 35.8114 -80.4333 204° Southwest 340 391 14,100 -840 Descending Atlanta Center
12:08AM 35.7606 -80.4817 218° Southwest 306 352 13,600 -720 Descending Atlanta Center
12:09AM 35.7422 -80.4925 206° Southwest 320 368 13,400 -780 Descending Atlanta Center
12:09AM 35.6789 -80.5464 215° Southwest 304 350 12,800 -720 Descending Atlanta Center
12:10AM 35.6097 -80.6083 216° Southwest 306 352 12,100 -720 Descending Atlanta Center
12:12AM 35.5322 -80.6675 212° Southwest 315 362 11,300 -720 Descending Atlanta Center
12:12AM 35.4731 -80.7211 216° Southwest 290 334 10,700 -540 Descending Atlanta Center
12:13AM 35.4731 -80.7183 90° East 302 348 10,700 -660 Level Atlanta Center
12:13AM 35.4097 -80.7719 215° Southwest 297 342 10,100 -840 Descending Atlanta Center
12:14AM 35.3894 -80.7881 213° Southwest 302 348 9,900 -120 Descending Atlanta Center
12:14AM 35.3425 -80.8281 215° Southwest 289 333 10,000  Climbing Atlanta Center
12:15AM 35.3239 -80.8392 206° Southwest 296 341 9,900 -600 Descending Atlanta Center
12:15AM 35.2758 -80.8383 179° South 243 280 9,400 -2,100 Descending Atlanta Center
12:16AM 35.2028 -80.8336 177° South 255 293 6,500 -2,700 Descending Atlanta Center
12:17AM 35.1381 -80.8258 174° South 249 287 4,300 -2,460 Descending Atlanta Center
12:19AM 35.2000 -80.9333 219° Southwest  Level FlightAware Approximate
12:26AM 35.2137 -80.9491 219° Southwest  Level Estimated